Time;durP1;ratioP1;P1;durP2;ratioP2;P2;SDS_P1;SDS_P2;PMS_P1;PMS_P2;Temp;Humidity;BMP_temperature;BMP_pressure;BME280_temperature;BME280_humidity;BME280_pressure;Samples;Min_cycle;Max_cycle;Signal;HPM_P1;HPM_P2
2023/10/27 00:01:20;;;;;;;;;;;;;;;;;;5012290;28;19972;-73
2023/10/27 00:03:47;;;;;;;;;;;;;;;;;;5012090;28;19971;-73
2023/10/27 00:06:14;;;;;;;;;;;;;;;;;;5013766;28;19925;-73
2023/10/27 00:08:41;;;;;;;;;;;;;;;;;;5013949;28;19968;-73
2023/10/27 00:11:08;;;;;;;;;;;;;;;;;;5013135;28;20277;-73
2023/10/27 00:13:35;;;;;;;;;;;;;;;;;;5013854;28;20000;-73
2023/10/27 00:16:02;;;;;;;;;;;;;;;;;;5012908;28;19972;-73
2023/10/27 00:18:29;;;;;;;;;;;;;;;;;;5013694;28;19968;-73
2023/10/27 00:20:56;;;;;;;;;;;;;;;;;;5012069;28;20718;-73
2023/10/27 00:23:23;;;;;;;;;;;;;;;;;;5012319;28;20013;-74
2023/10/27 00:25:51;;;;;;;;;;;;;;;;;;5012956;28;19925;-74
2023/10/27 00:28:18;;;;;;;;;;;;;;;;;;5013599;28;19948;-74
2023/10/27 00:30:45;;;;;;;;;;;;;;;;;;5018737;28;19975;-75
2023/10/27 00:33:12;;;;;;;;;;;;;;;;;;5014772;28;20016;-74
2023/10/27 00:35:39;;;;;;;;;;;;;;;;;;5013909;28;20402;-74
2023/10/27 00:38:06;;;;;;;;;;;;;;;;;;5013144;28;20299;-74
2023/10/27 00:40:33;;;;;;;;;;;;;;;;;;5013660;28;19925;-75
2023/10/27 00:43:00;;;;;;;;;;;;;;;;;;5015189;28;20024;-75
2023/10/27 00:45:27;;;;;;;;;;;;;;;;;;5014545;28;20008;-74
2023/10/27 00:47:54;;;;;;;;;;;;;;;;;;5014638;28;19983;-74
2023/10/27 00:50:21;;;;;;;;;;;;;;;;;;5013169;28;20392;-73
2023/10/27 00:52:48;;;;;;;;;;;;;;;;;;5011316;28;19925;-73
2023/10/27 00:55:15;;;;;;;;;;;;;;;;;;5013764;28;20410;-73
2023/10/27 00:57:42;;;;;;;;;;;;;;;;;;5013631;28;19972;-72
2023/10/27 01:00:09;;;;;;;;;;;;;;;;;;5013985;28;19925;-72
2023/10/27 01:02:36;;;;;;;;;;;;;;;;;;5008544;28;20009;-73
2023/10/27 01:05:03;;;;;;;;;;;;;;;;;;5014723;28;19930;-73
2023/10/27 01:07:30;;;;;;;;;;;;;;;;;;5017041;28;19987;-73
2023/10/27 01:09:57;;;;;;;;;;;;;;;;;;5015169;28;20008;-73
2023/10/27 01:12:24;;;;;;;;;;;;;;;;;;5011180;28;19996;-73
2023/10/27 01:14:51;;;;;;;;;;;;;;;;;;5012512;28;19965;-74
2023/10/27 01:17:18;;;;;;;;;;;;;;;;;;5012649;28;19929;-73
2023/10/27 01:19:45;;;;;;;;;;;;;;;;;;5007344;28;20017;-73
2023/10/27 01:22:15;;;;;;;;;;;;;;;;;;5008054;28;19975;-73
2023/10/27 01:24:42;;;;;;;;;;;;;;;;;;5012532;28;19933;-73
2023/10/27 01:27:08;;;;;;;;;;;;;;;;;;5011428;28;20494;-73
2023/10/27 01:29:35;;;;;;;;;;;;;;;;;;5011892;28;19968;-74
2023/10/27 01:32:02;;;;;;;;;;;;;;;;;;5010973;28;19993;-73
2023/10/27 01:34:29;;;;;;;;;;;;;;;;;;5012218;28;19926;-74
2023/10/27 01:36:56;;;;;;;;;;;;;;;;;;5009671;28;19957;-74
2023/10/27 01:39:23;;;;;;;;;;;;;;;;;;5016879;28;19952;-74
2023/10/27 01:41:50;;;;;;;;;;;;;;;;;;5015188;28;20025;-74
2023/10/27 01:44:17;;;;;;;;;;;;;;;;;;5015917;28;20012;-73
2023/10/27 01:46:44;;;;;;;;;;;;;;;;;;5016735;28;19925;-76
2023/10/27 01:49:12;;;;;;;;;;;;;;;;;;5020313;28;19961;-73
2023/10/27 01:51:39;;;;;;;;;;;;;;;;;;5014499;28;19933;-73
2023/10/27 01:54:06;;;;;;;;;;;;;;;;;;5014733;28;20400;-74
2023/10/27 01:56:34;;;;;;;;;;;;;;;;;;5014649;28;20020;-74
2023/10/27 01:59:01;;;;;;;;;;;;;;;;;;5016503;28;19932;-72
2023/10/27 02:01:28;;;;;;;;;;;;;;;;;;5015114;28;19929;-73
2023/10/27 02:03:55;;;;;;;;;;;;;;;;;;5015549;28;19958;-73
2023/10/27 02:06:22;;;;;;;;;;;;;;;;;;5012230;28;19933;-73
2023/10/27 02:08:49;;;;;;;;;;;;;;;;;;5015330;28;20020;-73
2023/10/27 02:11:16;;;;;;;;;;;;;;;;;;5014810;28;20012;-73
2023/10/27 02:13:43;;;;;;;;;;;;;;;;;;5014897;28;20016;-73
2023/10/27 02:16:10;;;;;;;;;;;;;;;;;;5016237;28;19930;-75
2023/10/27 02:18:37;;;;;;;;;;;;;;;;;;5015413;28;19977;-74
2023/10/27 02:21:04;;;;;;;;;;;;;;;;;;5013446;28;19925;-74
2023/10/27 02:23:31;;;;;;;;;;;;;;;;;;5012061;28;19925;-74
2023/10/27 02:25:58;;;;;;;;;;;;;;;;;;5014246;28;20398;-74
2023/10/27 02:28:25;;;;;;;;;;;;;;;;;;5015910;28;19926;-74
2023/10/27 02:30:52;;;;;;;;;;;;;;;;;;5023632;28;19980;-73
2023/10/27 02:33:19;;;;;;;;;;;;;;;;;;5018654;28;20019;-73
2023/10/27 02:35:46;;;;;;;;;;;;;;;;;;5035138;28;19925;-73
2023/10/27 02:38:13;;;;;;;;;;;;;;;;;;5028476;28;20027;-73
2023/10/27 02:40:40;;;;;;;;;;;;;;;;;;5014907;28;20004;-73
2023/10/27 02:43:07;;;;;;;;;;;;;;;;;;5014507;28;19926;-74
2023/10/27 02:45:34;;;;;;;;;;;;;;;;;;5015570;28;19973;-73
2023/10/27 02:48:01;;;;;;;;;;;;;;;;;;5014232;28;20023;-73
2023/10/27 02:50:28;;;;;;;;;;;;;;;;;;5014227;28;19975;-73
2023/10/27 02:52:55;;;;;;;;;;;;;;;;;;5014004;28;19976;-73
2023/10/27 02:55:22;;;;;;;;;;;;;;;;;;5002315;28;20343;-73
2023/10/27 02:57:49;;;;;;;;;;;;;;;;;;5014615;28;20350;-74
2023/10/27 03:00:16;;;;;;;;;;;;;;;;;;5014668;28;20028;-74
2023/10/27 03:02:43;;;;;;;;;;;;;;;;;;5014109;28;19996;-74
2023/10/27 03:05:10;;;;;;;;;;;;;;;;;;5014196;28;19930;-74
2023/10/27 03:07:37;;;;;;;;;;;;;;;;;;5014840;28;20376;-74
2023/10/27 03:10:04;;;;;;;;;;;;;;;;;;5014276;28;20429;-74
2023/10/27 03:12:31;;;;;;;;;;;;;;;;;;5013846;28;20287;-74
2023/10/27 03:14:58;;;;;;;;;;;;;;;;;;5010695;28;20367;-75
2023/10/27 03:17:26;;;;;;;;;;;;;;;;;;5014891;28;19949;-74
2023/10/27 03:19:54;;;;;;;;;;;;;;;;;;5015221;28;19932;-77
2023/10/27 03:22:21;;;;;;;;;;;;;;;;;;5014937;28;19926;-74
2023/10/27 03:24:48;;;;;;;;;;;;;;;;;;5009750;28;19961;-75
2023/10/27 03:27:16;;;;;;;;;;;;;;;;;;5014474;28;19932;-74
2023/10/27 03:29:43;;;;;;;;;;;;;;;;;;5015472;28;19933;-75
2023/10/27 03:32:10;;;;;;;;;;;;;;;;;;5014653;28;20012;-75
2023/10/27 03:34:37;;;;;;;;;;;;;;;;;;5013050;28;20415;-75
2023/10/27 03:37:04;;;;;;;;;;;;;;;;;;5013584;28;20014;-74
2023/10/27 03:39:31;;;;;;;;;;;;;;;;;;5013590;28;19980;-75
2023/10/27 03:41:57;;;;;;;;;;;;;;;;;;5014155;28;19925;-75
2023/10/27 03:44:24;;;;;;;;;;;;;;;;;;5013599;28;20424;-74
2023/10/27 03:46:51;;;;;;;;;;;;;;;;;;5014151;28;19969;-74
2023/10/27 03:49:18;;;;;;;;;;;;;;;;;;5012245;28;20025;-74
2023/10/27 03:51:45;;;;;;;;;;;;;;;;;;5013528;28;19925;-74
2023/10/27 03:54:12;;;;;;;;;;;;;;;;;;5012684;28;19988;-74
2023/10/27 03:56:39;;;;;;;;;;;;;;;;;;5012853;28;19926;-74
2023/10/27 03:59:07;;;;;;;;;;;;;;;;;;5012728;28;19973;-74
2023/10/27 04:01:36;;;;;;;;;;;;;;;;;;5010423;28;20205;-74
2023/10/27 04:04:03;;;;;;;;;;;;;;;;;;5013428;28;19952;-74
2023/10/27 04:06:30;;;;;;;;;;;;;;;;;;5014332;28;20412;-73
2023/10/27 04:08:58;;;;;;;;;;;;;;;;;;5020468;28;20068;-74
2023/10/27 04:11:25;;;;;;;;;;;;;;;;;;5020788;28;19932;-74
2023/10/27 04:13:52;;;;;;;;;;;;;;;;;;5013643;28;20031;-75
2023/10/27 04:16:19;;;;;;;;;;;;;;;;;;5013910;28;19933;-74
2023/10/27 04:18:46;;;;;;;;;;;;;;;;;;5012980;28;20012;-74
2023/10/27 04:21:13;;;;;;;;;;;;;;;;;;5013383;28;20019;-75
2023/10/27 04:23:40;;;;;;;;;;;;;;;;;;5013240;28;19936;-74
2023/10/27 04:26:07;;;;;;;;;;;;;;;;;;5013770;28;19930;-74
2023/10/27 04:28:34;;;;;;;;;;;;;;;;;;5011099;28;19926;-75
2023/10/27 04:31:01;;;;;;;;;;;;;;;;;;5011860;28;20000;-74
2023/10/27 04:33:29;;;;;;;;;;;;;;;;;;5013211;28;20431;-75
2023/10/27 04:35:56;;;;;;;;;;;;;;;;;;5014902;28;19958;-74
2023/10/27 04:38:23;;;;;;;;;;;;;;;;;;5009668;28;20371;-74
2023/10/27 04:40:51;;;;;;;;;;;;;;;;;;5011859;28;20032;-74
2023/10/27 04:43:18;;;;;;;;;;;;;;;;;;5011524;28;20320;-74
2023/10/27 04:45:45;;;;;;;;;;;;;;;;;;5012189;28;20385;-74
2023/10/27 04:48:12;;;;;;;;;;;;;;;;;;5012902;28;19969;-74
2023/10/27 04:50:39;;;;;;;;;;;;;;;;;;5012284;28;19925;-74
2023/10/27 04:53:06;;;;;;;;;;;;;;;;;;5013077;28;19972;-73
2023/10/27 04:55:33;;;;;;;;;;;;;;;;;;5010392;28;19925;-74
2023/10/27 04:58:00;;;;;;;;;;;;;;;;;;5009837;28;20392;-73
2023/10/27 05:00:27;;;;;;;;;;;;;;;;;;5007712;28;20431;-73
2023/10/27 05:02:54;;;;;;;;;;;;;;;;;;5011740;28;19984;-73
2023/10/27 05:05:21;;;;;;;;;;;;;;;;;;5011215;28;20004;-73
2023/10/27 05:07:48;;;;;;;;;;;;;;;;;;5012350;28;19925;-74
2023/10/27 05:10:15;;;;;;;;;;;;;;;;;;5010455;28;20356;-74
2023/10/27 05:12:42;;;;;;;;;;;;;;;;;;5011578;28;19965;-73
2023/10/27 05:15:09;;;;;;;;;;;;;;;;;;5025819;28;19933;-75
2023/10/27 05:17:36;;;;;;;;;;;;;;;;;;5016606;28;20420;-73
2023/10/27 05:20:03;;;;;;;;;;;;;;;;;;5020529;28;19987;-74
2023/10/27 05:22:31;;;;;;;;;;;;;;;;;;5024592;28;21954;-74
2023/10/27 05:24:58;;;;;;;;;;;;;;;;;;5019359;28;19968;-73
2023/10/27 05:27:25;;;;;;;;;;;;;;;;;;5010147;28;19925;-73
2023/10/27 05:29:52;;;;;;;;;;;;;;;;;;5014444;28;19937;-74
2023/10/27 05:32:19;;;;;;;;;;;;;;;;;;5030081;28;20404;-74
2023/10/27 05:34:47;;;;;;;;;;;;;;;;;;5015579;28;19980;-74
2023/10/27 05:37:14;;;;;;;;;;;;;;;;;;5017664;28;19926;-73
2023/10/27 05:39:41;;;;;;;;;;;;;;;;;;5023261;28;20055;-74
2023/10/27 05:42:09;;;;;;;;;;;;;;;;;;5019048;28;20025;-73
2023/10/27 05:44:36;;;;;;;;;;;;;;;;;;5013860;28;19932;-73
2023/10/27 05:47:03;;;;;;;;;;;;;;;;;;5015944;28;20020;-73
2023/10/27 05:49:30;;;;;;;;;;;;;;;;;;5017400;28;19929;-73
2023/10/27 05:52:02;;;;;;;;;;;;;;;;;;5019963;28;20012;-74
2023/10/27 05:54:29;;;;;;;;;;;;;;;;;;5017750;28;19956;-73
2023/10/27 05:56:56;;;;;;;;;;;;;;;;;;5009374;28;20020;-74
2023/10/27 05:59:23;;;;;;;;;;;;;;;;;;5000828;28;19926;-74
2023/10/27 06:01:53;;;;;;;;;;;;;;;;;;5022727;28;20024;-74
2023/10/27 06:04:20;;;;;;;;;;;;;;;;;;4995883;28;20013;-72
2023/10/27 06:06:47;;;;;;;;;;;;;;;;;;4994613;28;20008;-71
2023/10/27 06:09:14;;;;;;;;;;;;;;;;;;4991971;28;19961;-72
2023/10/27 06:11:42;;;;;;;;;;;;;;;;;;5012698;28;19929;-72
2023/10/27 06:14:09;;;;;;;;;;;;;;;;;;5013774;28;19925;-73
2023/10/27 06:16:36;;;;;;;;;;;;;;;;;;5018640;28;19925;-73
2023/10/27 06:19:03;;;;;;;;;;;;;;;;;;5020178;28;19965;-76
2023/10/27 06:21:30;;;;;;;;;;;;;;;;;;5014469;28;20285;-77
2023/10/27 06:23:57;;;;;;;;;;;;;;;;;;5017085;28;19972;-72
2023/10/27 06:26:25;;;;;;;;;;;;;;;;;;5019460;28;19929;-75
2023/10/27 06:28:53;;;;;;;;;;;;;;;;;;5025540;28;19925;-73
2023/10/27 06:31:20;;;;;;;;;;;;;;;;;;5021281;28;20020;-74
2023/10/27 06:33:47;;;;;;;;;;;;;;;;;;5018602;28;20350;-74
2023/10/27 06:36:14;;;;;;;;;;;;;;;;;;5023406;28;19960;-72
2023/10/27 06:38:41;;;;;;;;;;;;;;;;;;5021489;28;19925;-73
2023/10/27 06:41:08;;;;;;;;;;;;;;;;;;5019088;28;20091;-75
2023/10/27 06:43:35;;;;;;;;;;;;;;;;;;5014751;28;19931;-72
2023/10/27 06:46:02;;;;;;;;;;;;;;;;;;5009057;28;20012;-74
2023/10/27 06:48:29;;;;;;;;;;;;;;;;;;5013353;28;20024;-73
2023/10/27 06:50:56;;;;;;;;;;;;;;;;;;5012320;28;19933;-73
2023/10/27 06:53:23;;;;;;;;;;;;;;;;;;5008063;28;19961;-73
2023/10/27 06:55:50;;;;;;;;;;;;;;;;;;5011961;28;20020;-74
2023/10/27 06:58:17;;;;;;;;;;;;;;;;;;5012800;28;19925;-74
2023/10/27 07:00:44;;;;;;;;;;;;;;;;;;5009119;28;20024;-74
2023/10/27 07:03:11;;;;;;;;;;;;;;;;;;5015434;28;19925;-73
2023/10/27 07:05:38;;;;;;;;;;;;;;;;;;5014221;28;19951;-73
2023/10/27 07:08:06;;;;;;;;;;;;;;;;;;5006443;28;19935;-72
2023/10/27 07:10:33;;;;;;;;;;;;;;;;;;5004149;28;20384;-72
2023/10/27 07:13:00;;;;;;;;;;;;;;;;;;5006435;28;20387;-74
2023/10/27 07:15:27;;;;;;;;;;;;;;;;;;5008275;28;19933;-72
2023/10/27 07:17:54;;;;;;;;;;;;;;;;;;5005835;28;19940;-73
2023/10/27 07:20:21;;;;;;;;;;;;;;;;;;5011004;28;20373;-72
2023/10/27 07:22:48;;;;;;;;;;;;;;;;;;5005659;28;20411;-72
2023/10/27 07:25:15;;;;;;;;;;;;;;;;;;5004467;28;20558;-71
2023/10/27 07:27:43;;;;;;;;;;;;;;;;;;5009018;28;19933;-72
2023/10/27 07:30:10;;;;;;;;;;;;;;;;;;5007165;28;20011;-72
2023/10/27 07:32:37;;;;;;;;;;;;;;;;;;5002720;28;19961;-72
2023/10/27 07:35:04;;;;;;;;;;;;;;;;;;5002970;28;20141;-72
2023/10/27 07:37:31;;;;;;;;;;;;;;;;;;5003354;28;20016;-70
2023/10/27 07:39:58;;;;;;;;;;;;;;;;;;5006691;28;19971;-73
2023/10/27 07:42:25;;;;;;;;;;;;;;;;;;5003522;28;20020;-72
2023/10/27 07:44:52;;;;;;;;;;;;;;;;;;5006271;28;19929;-72
2023/10/27 07:47:19;;;;;;;;;;;;;;;;;;5004826;28;19926;-73
2023/10/27 07:49:46;;;;;;;;;;;;;;;;;;5017325;28;19926;-74
2023/10/27 07:52:13;;;;;;;;;;;;;;;;;;5011866;28;20009;-73
2023/10/27 07:54:40;;;;;;;;;;;;;;;;;;5015259;28;19933;-73
2023/10/27 07:57:07;;;;;;;;;;;;;;;;;;5012856;28;19932;-74
2023/10/27 07:59:34;;;;;;;;;;;;;;;;;;5014559;28;19925;-73
2023/10/27 08:02:01;;;;;;;;;;;;;;;;;;5007154;28;19929;-73
2023/10/27 08:04:28;;;;;;;;;;;;;;;;;;5011655;28;20016;-73
2023/10/27 08:06:54;;;;;;;;;;;;;;;;;;5012354;28;19972;-73
2023/10/27 08:09:21;;;;;;;;;;;;;;;;;;5012010;28;19925;-74
2023/10/27 08:11:49;;;;;;;;;;;;;;;;;;5012798;28;20000;-68
2023/10/27 08:14:16;;;;;;;;;;;;;;;;;;5012344;28;19926;-67
2023/10/27 08:16:43;;;;;;;;;;;;;;;;;;5004034;28;19983;-68
2023/10/27 08:19:10;;;;;;;;;;;;;;;;;;5001324;28;19991;-68
2023/10/27 08:21:37;;;;;;;;;;;;;;;;;;5010732;28;20012;-68
2023/10/27 08:24:04;;;;;;;;;;;;;;;;;;5011188;28;20016;-69
2023/10/27 08:26:31;;;;;;;;;;;;;;;;;;5008610;28;19925;-68
2023/10/27 08:28:58;;;;;;;;;;;;;;;;;;5009848;28;20427;-68
2023/10/27 08:31:25;;;;;;;;;;;;;;;;;;5009464;28;19925;-68
2023/10/27 08:33:52;;;;;;;;;;;;;;;;;;5012099;28;19926;-68
2023/10/27 08:36:19;;;;;;;;;;;;;;;;;;5009930;28;19964;-68
2023/10/27 08:38:46;;;;;;;;;;;;;;;;;;5009629;28;19987;-68
2023/10/27 08:41:14;;;;;;;;;;;;;;;;;;5008252;28;20011;-68
2023/10/27 08:43:41;;;;;;;;;;;;;;;;;;5003306;28;20035;-69
2023/10/27 08:46:08;;;;;;;;;;;;;;;;;;5007282;28;20037;-69
2023/10/27 08:48:35;;;;;;;;;;;;;;;;;;5002015;28;19941;-69
2023/10/27 08:51:04;;;;;;;;;;;;;;;;;;5011652;28;19968;-69
2023/10/27 08:53:31;;;;;;;;;;;;;;;;;;5011189;28;19934;-69
2023/10/27 08:55:58;;;;;;;;;;;;;;;;;;5010999;28;19969;-68
2023/10/27 08:58:25;;;;;;;;;;;;;;;;;;5011383;28;20020;-69
2023/10/27 09:00:52;;;;;;;;;;;;;;;;;;5010936;28;20470;-71
2023/10/27 09:03:18;;;;;;;;;;;;;;;;;;5007939;28;20349;-68
2023/10/27 09:05:45;;;;;;;;;;;;;;;;;;5011740;28;19957;-67
2023/10/27 09:08:12;;;;;;;;;;;;;;;;;;5012350;28;20052;-69
2023/10/27 09:10:39;;;;;;;;;;;;;;;;;;5016578;28;19933;-70
2023/10/27 09:13:07;;;;;;;;;;;;;;;;;;5021050;28;19969;-69
2023/10/27 09:15:34;;;;;;;;;;;;;;;;;;5009307;28;20024;-69
2023/10/27 09:18:01;;;;;;;;;;;;;;;;;;5005031;28;19925;-69
2023/10/27 09:20:28;;;;;;;;;;;;;;;;;;5010522;28;19925;-70
2023/10/27 09:22:55;;;;;;;;;;;;;;;;;;5005599;28;19973;-69
2023/10/27 09:25:22;;;;;;;;;;;;;;;;;;5004927;28;19932;-69
2023/10/27 09:27:49;;;;;;;;;;;;;;;;;;5000618;28;19936;-70
2023/10/27 09:30:17;;;;;;;;;;;;;;;;;;5001433;28;20392;-70
2023/10/27 09:32:44;;;;;;;;;;;;;;;;;;5003002;28;19995;-70
2023/10/27 09:35:13;;;;;;;;;;;;;;;;;;5004870;28;20008;-69
2023/10/27 09:37:41;;;;;;;;;;;;;;;;;;5002274;28;20312;-68
2023/10/27 09:40:09;;;;;;;;;;;;;;;;;;5002473;28;20557;-69
2023/10/27 09:42:36;;;;;;;;;;;;;;;;;;5003773;28;19933;-67
2023/10/27 09:45:04;;;;;;;;;;;;;;;;;;5000571;28;19925;-68
2023/10/27 09:47:31;;;;;;;;;;;;;;;;;;5008016;28;19933;-67
2023/10/27 09:49:58;;;;;;;;;;;;;;;;;;5003191;28;20013;-67
2023/10/27 09:52:25;;;;;;;;;;;;;;;;;;5001812;28;19957;-69
2023/10/27 09:54:52;;;;;;;;;;;;;;;;;;5004543;28;19952;-68
2023/10/27 09:57:19;;;;;;;;;;;;;;;;;;5015492;28;20356;-69
2023/10/27 09:59:47;;;;;;;;;;;;;;;;;;5015532;28;19925;-68
2023/10/27 10:02:14;;;;;;;;;;;;;;;;;;5011002;28;19979;-67
2023/10/27 10:04:41;;;;;;;;;;;;;;;;;;5008989;28;20012;-67
2023/10/27 10:07:08;;;;;;;;;;;;;;;;;;5007888;28;19991;-68
2023/10/27 10:09:35;;;;;;;;;;;;;;;;;;5012715;28;19926;-68
2023/10/27 10:12:02;;;;;;;;;;;;;;;;;;5010648;28;19972;-68
2023/10/27 10:14:29;;;;;;;;;;;;;;;;;;5009326;28;19929;-68
2023/10/27 10:16:56;;;;;;;;;;;;;;;;;;5010030;28;19926;-70
2023/10/27 10:19:23;;;;;;;;;;;;;;;;;;5007427;28;19999;-68
2023/10/27 10:21:50;;;;;;;;;;;;;;;;;;5006643;28;19925;-68
2023/10/27 10:24:18;;;;;;;;;;;;;;;;;;5004320;28;20467;-68
2023/10/27 10:26:45;;;;;;;;;;;;;;;;;;5005047;28;20370;-68
2023/10/27 10:29:13;;;;;;;;;;;;;;;;;;5006517;28;19933;-68
2023/10/27 10:31:40;;;;;;;;;;;;;;;;;;5008194;28;19933;-68
2023/10/27 10:34:06;;;;;;;;;;;;;;;;;;5004686;28;20443;-68
2023/10/27 10:36:33;;;;;;;;;;;;;;;;;;5007094;28;20040;-68
2023/10/27 10:39:03;;;;;;;;;;;;;;;;;;5006766;28;20418;-69
2023/10/27 10:41:30;;;;;;;;;;;;;;;;;;5005488;28;19929;-69
2023/10/27 10:43:57;;;;;;;;;;;;;;;;;;5003719;28;19969;-68
2023/10/27 10:46:24;;;;;;;;;;;;;;;;;;5003751;28;20100;-69
2023/10/27 10:48:52;;;;;;;;;;;;;;;;;;5006928;28;20032;-69
2023/10/27 10:51:26;;;;;;;;;;;;;;;;;;5009041;28;20400;-70
2023/10/27 10:53:53;;;;;;;;;;;;;;;;;;5004435;28;19926;-69
2023/10/27 10:56:20;;;;;;;;;;;;;;;;;;5004065;28;19932;-69
2023/10/27 10:58:47;;;;;;;;;;;;;;;;;;5004923;28;19979;-70
2023/10/27 11:01:14;;;;;;;;;;;;;;;;;;5007607;28;20132;-69
2023/10/27 11:03:41;;;;;;;;;;;;;;;;;;5007017;28;20444;-68
2023/10/27 11:06:08;;;;;;;;;;;;;;;;;;5008689;28;20359;-69
2023/10/27 11:08:37;;;;;;;;;;;;;;;;;;5008346;28;19948;-70
2023/10/27 11:11:04;;;;;;;;;;;;;;;;;;5009159;28;19926;-70
2023/10/27 11:13:31;;;;;;;;;;;;;;;;;;5003398;28;19929;-70
2023/10/27 11:15:59;;;;;;;;;;;;;;;;;;5001087;28;20396;-70
2023/10/27 11:18:26;;;;;;;;;;;;;;;;;;5005859;28;19926;-70
2023/10/27 11:20:53;;;;;;;;;;;;;;;;;;5006838;28;19925;-70
2023/10/27 11:23:20;;;;;;;;;;;;;;;;;;5002875;28;20015;-70
2023/10/27 11:25:47;;;;;;;;;;;;;;;;;;5002304;28;20305;-69
2023/10/27 11:28:14;;;;;;;;;;;;;;;;;;5003050;28;20377;-68
2023/10/27 11:30:41;;;;;;;;;;;;;;;;;;5002749;28;20364;-69
2023/10/27 11:33:08;;;;;;;;;;;;;;;;;;5010060;28;20296;-69
2023/10/27 11:35:36;;;;;;;;;;;;;;;;;;5012375;28;19929;-68
2023/10/27 11:38:02;;;;;;;;;;;;;;;;;;5005817;28;19925;-69
2023/10/27 11:40:29;;;;;;;;;;;;;;;;;;5003577;28;19929;-69
2023/10/27 11:42:56;;;;;;;;;;;;;;;;;;5002483;28;20365;-69
2023/10/27 11:45:23;;;;;;;;;;;;;;;;;;5002378;28;19953;-69
2023/10/27 11:47:50;;;;;;;;;;;;;;;;;;5007762;28;19987;-70
2023/10/27 11:50:18;;;;;;;;;;;;;;;;;;5016520;28;19972;-69
2023/10/27 11:52:44;;;;;;;;;;;;;;;;;;5002252;28;19934;-69
2023/10/27 11:55:11;;;;;;;;;;;;;;;;;;5010085;28;19964;-69
2023/10/27 11:57:38;;;;;;;;;;;;;;;;;;5007028;28;19932;-70
2023/10/27 12:00:08;;;;;;;;;;;;;;;;;;5011527;28;19925;-69
2023/10/27 12:02:35;;;;;;;;;;;;;;;;;;5010598;28;19925;-69
2023/10/27 12:05:05;;;;;;;;;;;;;;;;;;5010106;28;19925;-70
2023/10/27 12:07:32;;;;;;;;;;;;;;;;;;5011764;28;20340;-70
2023/10/27 12:10:00;;;;;;;;;;;;;;;;;;5012100;28;19930;-71
2023/10/27 12:12:28;;;;;;;;;;;;;;;;;;5003222;28;20384;-70
2023/10/27 12:14:55;;;;;;;;;;;;;;;;;;5012240;28;19925;-71
2023/10/27 12:17:23;;;;;;;;;;;;;;;;;;5005587;28;19925;-69
2023/10/27 12:19:50;;;;;;;;;;;;;;;;;;5012137;28;19964;-70
2023/10/27 12:22:17;;;;;;;;;;;;;;;;;;5009405;28;20060;-70
2023/10/27 12:24:44;;;;;;;;;;;;;;;;;;5011450;28;19968;-70
2023/10/27 12:27:12;;;;;;;;;;;;;;;;;;5010529;28;20398;-70
2023/10/27 12:29:39;;;;;;;;;;;;;;;;;;5010711;28;20027;-70
2023/10/27 12:32:07;;;;;;;;;;;;;;;;;;5010854;28;19926;-71
2023/10/27 12:34:34;;;;;;;;;;;;;;;;;;5008723;28;19925;-73
2023/10/27 12:37:02;;;;;;;;;;;;;;;;;;5009640;28;19956;-70
2023/10/27 12:39:29;;;;;;;;;;;;;;;;;;5003195;28;19926;-70
2023/10/27 12:41:56;;;;;;;;;;;;;;;;;;5006317;28;19980;-71
2023/10/27 12:44:23;;;;;;;;;;;;;;;;;;5007296;28;20012;-71
2023/10/27 12:46:50;;;;;;;;;;;;;;;;;;5003974;28;20304;-69
2023/10/27 12:49:17;;;;;;;;;;;;;;;;;;5008983;28;19937;-69
2023/10/27 12:51:44;;;;;;;;;;;;;;;;;;5004369;28;20381;-72
2023/10/27 12:54:11;;;;;;;;;;;;;;;;;;5002797;28;20044;-71
2023/10/27 12:56:38;;;;;;;;;;;;;;;;;;5006004;28;20016;-70
2023/10/27 12:59:05;;;;;;;;;;;;;;;;;;5006477;28;19961;-70
2023/10/27 13:01:32;;;;;;;;;;;;;;;;;;5008826;28;19925;-70
2023/10/27 13:03:59;;;;;;;;;;;;;;;;;;5009275;28;20092;-69
2023/10/27 13:06:26;;;;;;;;;;;;;;;;;;5009602;28;19933;-68
2023/10/27 13:08:53;;;;;;;;;;;;;;;;;;5004055;28;19954;-68
2023/10/27 13:11:20;;;;;;;;;;;;;;;;;;5007055;28;19925;-67
2023/10/27 13:13:49;;;;;;;;;;;;;;;;;;5003531;28;19930;-67
2023/10/27 13:16:16;;;;;;;;;;;;;;;;;;5005173;28;19965;-68
2023/10/27 13:18:43;;;;;;;;;;;;;;;;;;5006280;28;19932;-67
2023/10/27 13:21:10;;;;;;;;;;;;;;;;;;5005617;28;20119;-68
2023/10/27 13:23:37;;;;;;;;;;;;;;;;;;5004773;28;19926;-67
2023/10/27 13:26:04;;;;;;;;;;;;;;;;;;5012733;28;20020;-67
2023/10/27 13:28:31;;;;;;;;;;;;;;;;;;5005182;28;19981;-70
2023/10/27 13:30:59;;;;;;;;;;;;;;;;;;5005249;28;19973;-69
2023/10/27 13:33:28;;;;;;;;;;;;;;;;;;5009321;28;19932;-72
2023/10/27 13:35:55;;;;;;;;;;;;;;;;;;5012683;28;19933;-69
2023/10/27 13:38:22;;;;;;;;;;;;;;;;;;5003204;28;20012;-71
2023/10/27 13:40:50;;;;;;;;;;;;;;;;;;5013671;28;19933;-71
2023/10/27 13:43:20;;;;;;;;;;;;;;;;;;5010465;28;20385;-71
2023/10/27 13:45:47;;;;;;;;;;;;;;;;;;5011477;28;20276;-70
2023/10/27 13:48:14;;;;;;;;;;;;;;;;;;5008800;28;19933;-70
2023/10/27 13:50:43;;;;;;;;;;;;;;;;;;5009984;28;20376;-71
2023/10/27 13:53:10;;;;;;;;;;;;;;;;;;5010240;28;19930;-70
2023/10/27 13:55:37;;;;;;;;;;;;;;;;;;5013281;28;20358;-70
2023/10/27 13:58:05;;;;;;;;;;;;;;;;;;5006135;28;19925;-70
2023/10/27 14:00:32;;;;;;;;;;;;;;;;;;5011181;28;19925;-71
2023/10/27 14:02:59;;;;;;;;;;;;;;;;;;5011376;28;19964;-71
2023/10/27 14:05:26;;;;;;;;;;;;;;;;;;5007439;28;20024;-71
2023/10/27 14:07:53;;;;;;;;;;;;;;;;;;5005343;28;20017;-70
2023/10/27 14:10:20;;;;;;;;;;;;;;;;;;5013962;28;19973;-70
2023/10/27 14:12:48;;;;;;;;;;;;;;;;;;5013993;28;19972;-71
2023/10/27 14:15:19;;;;;;;;;;;;;;;;;;5007461;28;19926;-71
2023/10/27 14:17:46;;;;;;;;;;;;;;;;;;5014008;28;19932;-70
2023/10/27 14:20:13;;;;;;;;;;;;;;;;;;5008330;28;19985;-73
2023/10/27 14:22:41;;;;;;;;;;;;;;;;;;5008673;28;19980;-72
2023/10/27 14:25:08;;;;;;;;;;;;;;;;;;5005203;28;20351;-74
2023/10/27 14:27:35;;;;;;;;;;;;;;;;;;5008659;28;19925;-73
2023/10/27 14:30:03;;;;;;;;;;;;;;;;;;5009311;28;20009;-74
2023/10/27 14:32:30;;;;;;;;;;;;;;;;;;5013632;28;19926;-72
2023/10/27 14:34:57;;;;;;;;;;;;;;;;;;5012883;28;19929;-74
2023/10/27 14:37:25;;;;;;;;;;;;;;;;;;5012483;28;19951;-74
2023/10/27 14:39:52;;;;;;;;;;;;;;;;;;5008554;28;20016;-75
2023/10/27 14:42:19;;;;;;;;;;;;;;;;;;5008950;28;19932;-73
2023/10/27 14:44:46;;;;;;;;;;;;;;;;;;5007951;28;19926;-73
2023/10/27 14:47:17;;;;;;;;;;;;;;;;;;5006727;28;20012;-73
2023/10/27 14:49:44;;;;;;;;;;;;;;;;;;5009875;28;19992;-74
2023/10/27 14:52:11;;;;;;;;;;;;;;;;;;5013053;28;20480;-73
2023/10/27 14:54:38;;;;;;;;;;;;;;;;;;5006427;28;20355;-72
2023/10/27 14:57:06;;;;;;;;;;;;;;;;;;5012657;28;20005;-71
2023/10/27 14:59:33;;;;;;;;;;;;;;;;;;5014805;28;19926;-74
2023/10/27 15:02:00;;;;;;;;;;;;;;;;;;5009906;28;20028;-73
2023/10/27 15:04:27;;;;;;;;;;;;;;;;;;5008346;28;20084;-73
2023/10/27 15:06:56;;;;;;;;;;;;;;;;;;5007647;28;19925;-73
2023/10/27 15:09:23;;;;;;;;;;;;;;;;;;5008663;28;19968;-72
2023/10/27 15:11:51;;;;;;;;;;;;;;;;;;5007445;28;19931;-73
2023/10/27 15:14:18;;;;;;;;;;;;;;;;;;5008370;28;19929;-75
2023/10/27 15:16:46;;;;;;;;;;;;;;;;;;5007236;28;19932;-74
2023/10/27 15:19:15;;;;;;;;;;;;;;;;;;5014401;28;20453;-73
2023/10/27 15:21:43;;;;;;;;;;;;;;;;;;5012067;28;19926;-74
2023/10/27 15:24:11;;;;;;;;;;;;;;;;;;5013727;28;19961;-73
2023/10/27 15:26:38;;;;;;;;;;;;;;;;;;5013896;28;19925;-74
2023/10/27 15:29:05;;;;;;;;;;;;;;;;;;5012500;28;20020;-74
2023/10/27 15:31:32;;;;;;;;;;;;;;;;;;5012124;28;20012;-72
2023/10/27 15:33:59;;;;;;;;;;;;;;;;;;5009579;28;19929;-72
2023/10/27 15:36:26;;;;;;;;;;;;;;;;;;5008142;28;20032;-73
2023/10/27 15:38:53;;;;;;;;;;;;;;;;;;4998457;28;20020;-74
2023/10/27 15:41:20;;;;;;;;;;;;;;;;;;5014111;28;19961;-74
2023/10/27 15:43:47;;;;;;;;;;;;;;;;;;5008301;28;19967;-74
2023/10/27 15:46:14;;;;;;;;;;;;;;;;;;5011068;28;19972;-74
2023/10/27 15:48:41;;;;;;;;;;;;;;;;;;5006129;28;19933;-73
2023/10/27 15:51:08;;;;;;;;;;;;;;;;;;5011214;28;19926;-72
2023/10/27 15:53:35;;;;;;;;;;;;;;;;;;5010093;28;20032;-72
2023/10/27 15:56:02;;;;;;;;;;;;;;;;;;5012816;28;19961;-72
2023/10/27 15:58:29;;;;;;;;;;;;;;;;;;5009938;28;20020;-72
2023/10/27 16:00:59;;;;;;;;;;;;;;;;;;5012984;28;19948;-72
2023/10/27 16:03:26;;;;;;;;;;;;;;;;;;5009228;28;19925;-73
2023/10/27 16:05:54;;;;;;;;;;;;;;;;;;5011854;28;19925;-72
2023/10/27 16:08:21;;;;;;;;;;;;;;;;;;5009296;28;19926;-73
2023/10/27 16:10:48;;;;;;;;;;;;;;;;;;5010488;28;20227;-73
2023/10/27 16:13:15;;;;;;;;;;;;;;;;;;5012437;28;19933;-72
2023/10/27 16:15:42;;;;;;;;;;;;;;;;;;5009064;28;20353;-72
2023/10/27 16:18:09;;;;;;;;;;;;;;;;;;5009367;28;20447;-73
2023/10/27 16:20:36;;;;;;;;;;;;;;;;;;5006849;28;20343;-73
2023/10/27 16:23:03;;;;;;;;;;;;;;;;;;5006617;28;19979;-73
2023/10/27 16:25:30;;;;;;;;;;;;;;;;;;4999475;28;19932;-72
2023/10/27 16:27:57;;;;;;;;;;;;;;;;;;5006623;28;19926;-71
2023/10/27 16:30:24;;;;;;;;;;;;;;;;;;5007639;28;19953;-74
2023/10/27 16:32:51;;;;;;;;;;;;;;;;;;5007291;28;19957;-75
2023/10/27 16:35:18;;;;;;;;;;;;;;;;;;5011537;28;19926;-74
2023/10/27 16:37:46;;;;;;;;;;;;;;;;;;5011623;28;20307;-75
2023/10/27 16:40:14;;;;;;;;;;;;;;;;;;5011253;28;19932;-73
2023/10/27 16:42:41;;;;;;;;;;;;;;;;;;5010501;28;19926;-73
2023/10/27 16:45:10;;;;;;;;;;;;;;;;;;5008841;28;20364;-73